Time;durP1;ratioP1;P1;durP2;ratioP2;P2;SDS_P1;SDS_P2;PMS_P1;PMS_P2;Temp;Humidity;BMP_temperature;BMP_pressure;BME280_temperature;BME280_humidity;BME280_pressure;Samples;Min_cycle;Max_cycle;Signal;HPM_P1;HPM_P2
2021/12/19 00:00:11;;;;;;;11.77;7.05;;;7.90;99.90;;;;;;5032998;28;20033;-67
2021/12/19 00:10:39;;;;;;;12.80;6.85;;;8.00;99.90;;;;;;5032298;28;20518;-67
2021/12/19 00:13:06;;;;;;;11.05;7.18;;;8.00;99.90;;;;;;5031295;28;20037;-67
2021/12/19 00:15:32;;;;;;;14.55;6.43;;;8.00;99.90;;;;;;5031585;28;20045;-67
2021/12/19 00:17:57;;;;;;;12.75;6.38;;;8.00;99.90;;;;;;5032560;28;20055;-67
2021/12/19 00:20:23;;;;;;;12.20;5.70;;;8.00;99.90;;;;;;5032628;28;20494;-67
2021/12/19 00:22:48;;;;;;;9.13;6.18;;;7.90;99.90;;;;;;5032378;28;20505;-67
2021/12/19 00:25:14;;;;;;;10.90;5.93;;;8.00;99.90;;;;;;5031233;28;20060;-67
2021/12/19 00:27:40;;;;;;;10.25;5.85;;;8.00;99.90;;;;;;5032293;28;20037;-67
2021/12/19 00:30:06;;;;;;;11.75;5.70;;;8.00;99.90;;;;;;5031060;28;20045;-67
2021/12/19 00:32:34;;;;;;;10.98;5.45;;;8.00;99.90;;;;;;5030792;28;20053;-67
2021/12/19 00:35:02;;;;;;;9.93;6.00;;;8.00;99.90;;;;;;5015156;28;20037;-67
2021/12/19 00:37:28;;;;;;;7.95;5.50;;;8.00;99.90;;;;;;5032381;28;20060;-67
2021/12/19 00:39:54;;;;;;;8.63;5.53;;;8.00;99.90;;;;;;5014768;28;20095;-67
2021/12/19 00:42:34;;;;;;;9.85;5.65;;;8.00;99.90;;;;;;5030576;28;20513;-68
2021/12/19 00:45:13;;;;;;;11.95;5.90;;;8.00;99.90;;;;;;5032009;28;20037;-67
2021/12/19 00:47:38;;;;;;;8.32;5.53;;;8.00;99.90;;;;;;5031112;28;20053;-67
2021/12/19 00:50:04;;;;;;;8.85;5.60;;;8.00;99.90;;;;;;5032226;28;20060;-67
2021/12/19 00:52:30;;;;;;;8.73;5.78;;;8.00;99.90;;;;;;5031694;28;20029;-67
2021/12/19 00:54:55;;;;;;;9.25;5.43;;;8.10;99.90;;;;;;5032145;28;20044;-67
2021/12/19 00:57:21;;;;;;;10.68;5.65;;;8.00;99.90;;;;;;5031874;28;20034;-67
2021/12/19 00:59:47;;;;;;;9.93;5.30;;;8.00;99.90;;;;;;5032283;28;20041;-67
2021/12/19 01:02:13;;;;;;;9.38;6.15;;;8.10;99.90;;;;;;5031746;28;20517;-67
2021/12/19 01:04:38;;;;;;;8.65;5.70;;;8.00;99.90;;;;;;5031900;28;20033;-67
2021/12/19 01:07:04;;;;;;;8.50;5.47;;;8.00;99.90;;;;;;5030669;28;20043;-67
2021/12/19 01:09:30;;;;;;;11.30;5.88;;;8.10;99.90;;;;;;5030242;28;20045;-67
2021/12/19 01:11:56;;;;;;;11.18;6.13;;;8.00;99.90;;;;;;5030564;28;20049;-67
2021/12/19 01:14:22;;;;;;;11.73;6.03;;;8.00;99.90;;;;;;5030772;28;20041;-67
2021/12/19 01:16:49;;;;;;;9.52;6.35;;;8.10;99.90;;;;;;5031891;28;20224;-67
2021/12/19 01:19:15;;;;;;;12.95;6.43;;;8.10;99.90;;;;;;5031819;28;20037;-67
2021/12/19 01:21:40;;;;;;;11.48;6.57;;;8.00;99.90;;;;;;5030454;28;20449;-67
2021/12/19 01:24:06;;;;;;;12.45;6.68;;;8.10;99.90;;;;;;5031549;28;20045;-67
2021/12/19 01:26:32;;;;;;;12.82;6.43;;;8.00;99.90;;;;;;5031601;28;20037;-67
2021/12/19 01:28:57;;;;;;;16.20;7.43;;;8.00;99.90;;;;;;5030245;28;20087;-67
2021/12/19 01:31:23;;;;;;;18.75;7.93;;;8.00;99.90;;;;;;5030426;28;20041;-67
2021/12/19 01:33:49;;;;;;;14.75;7.82;;;8.10;99.90;;;;;;5030142;28;20038;-67
2021/12/19 01:36:14;;;;;;;11.68;6.90;;;8.10;99.90;;;;;;5031666;28;20041;-68
2021/12/19 01:38:40;;;;;;;13.15;7.05;;;8.00;99.90;;;;;;5031516;28;20037;-67
2021/12/19 01:41:06;;;;;;;11.40;7.43;;;8.10;99.90;;;;;;5031726;28;20413;-67
2021/12/19 01:43:32;;;;;;;16.35;8.20;;;8.10;99.90;;;;;;5031347;28;20030;-67
2021/12/19 01:45:58;;;;;;;10.57;7.07;;;8.10;99.90;;;;;;5031639;28;20511;-67
2021/12/19 01:48:24;;;;;;;12.65;6.22;;;8.10;99.90;;;;;;5033959;28;20068;-67
2021/12/19 01:50:51;;;;;;;9.18;4.85;;;8.00;99.90;;;;;;5035475;28;20494;-67
2021/12/19 01:53:17;;;;;;;8.73;4.13;;;8.00;99.90;;;;;;5033677;28;20048;-67
2021/12/19 01:55:46;;;;;;;5.65;3.20;;;7.90;99.90;;;;;;5035612;28;20602;-67
2021/12/19 01:58:12;;;;;;;7.25;4.00;;;8.00;99.90;;;;;;5034044;28;20402;-67
2021/12/19 02:00:45;;;;;;;5.47;3.05;;;7.90;99.90;;;;;;5035271;28;20095;-67
2021/12/19 02:03:11;;;;;;;3.67;2.83;;;7.90;99.90;;;;;;5033727;28;20041;-67
2021/12/19 02:05:37;;;;;;;6.25;3.03;;;7.90;99.90;;;;;;5035106;28;20411;-67
2021/12/19 02:08:06;;;;;;;3.47;2.75;;;8.00;99.90;;;;;;5035214;28;20064;-67
2021/12/19 02:10:33;;;;;;;5.00;3.08;;;8.00;99.90;;;;;;5034697;28;20124;-67
2021/12/19 02:13:02;;;;;;;4.85;3.17;;;8.00;99.90;;;;;;5034736;28;20099;-67
2021/12/19 02:15:30;;;;;;;5.22;3.58;;;8.00;99.90;;;;;;5034817;28;20033;-67
2021/12/19 02:18:01;;;;;;;9.65;4.35;;;8.00;99.90;;;;;;5034814;28;20664;-67
2021/12/19 02:20:35;;;;;;;6.63;3.78;;;8.00;99.90;;;;;;5033561;28;20080;-68
2021/12/19 02:23:02;;;;;;;6.63;3.85;;;8.00;99.90;;;;;;5033591;28;20122;-68
2021/12/19 02:25:28;;;;;;;5.05;3.58;;;8.00;99.90;;;;;;5033729;28;20371;-67
2021/12/19 02:27:54;;;;;;;6.38;3.42;;;8.00;99.90;;;;;;5033121;28;20057;-67
2021/12/19 02:30:19;;;;;;;6.45;3.65;;;8.00;99.90;;;;;;5033326;28;20048;-67
2021/12/19 02:32:45;;;;;;;3.97;2.78;;;7.90;99.90;;;;;;5034541;28;20599;-67
2021/12/19 02:35:16;;;;;;;4.05;2.80;;;8.00;99.90;;;;;;5034850;28;20037;-67
2021/12/19 02:48:10;;;;;;;3.13;2.50;;;7.90;99.90;;;;;;5033434;28;20513;-68
2021/12/19 02:48:28;;;;;;;3.95;3.03;;;7.90;99.90;;;;;;5033087;28;20106;-68
2021/12/19 02:50:56;;;;;;;4.30;2.35;;;8.00;99.90;;;;;;5034341;28;20425;-67
2021/12/19 02:53:36;;;;;;;3.42;2.25;;;8.00;99.90;;;;;;5033883;28;20098;-67
2021/12/19 02:56:09;;;;;;;3.78;2.17;;;8.00;99.90;;;;;;5034204;28;20034;-67
2021/12/19 02:58:37;;;;;;;2.10;1.90;;;8.00;99.90;;;;;;5033422;28;20486;-67
2021/12/19 03:01:17;;;;;;;1.70;1.60;;;7.90;99.90;;;;;;5032600;28;20046;-67
2021/12/19 03:03:44;;;;;;;2.83;1.50;;;7.90;99.90;;;;;;5033785;28;20033;-68
2021/12/19 03:06:10;;;;;;;1.25;1.15;;;7.90;99.90;;;;;;5034172;28;20063;-67
2021/12/19 03:08:40;;;;;;;1.98;1.20;;;7.80;99.90;;;;;;5033980;28;20053;-67
2021/12/19 03:11:39;;;;;;;1.10;1.00;;;7.90;99.90;;;;;;5033684;28;20079;-67
2021/12/19 03:19:20;;;;;;;1.42;1.33;;;7.90;99.90;;;;;;5033844;28;20481;-67
2021/12/19 03:21:46;;;;;;;1.88;1.50;;;7.90;99.90;;;;;;5032115;28;20068;-67
2021/12/19 03:24:11;;;;;;;2.05;1.33;;;7.90;99.90;;;;;;5033596;28;20131;-68
2021/12/19 03:26:37;;;;;;;1.38;1.27;;;7.80;99.90;;;;;;5033640;28;20025;-67
2021/12/19 03:29:04;;;;;;;1.85;1.70;;;7.90;99.90;;;;;;5033508;28;20041;-67
2021/12/19 03:31:30;;;;;;;2.53;1.67;;;7.80;99.90;;;;;;5033614;28;20082;-67
2021/12/19 03:33:56;;;;;;;2.28;1.50;;;7.80;99.90;;;;;;5033273;28;20045;-68
2021/12/19 03:36:21;;;;;;;1.67;1.52;;;7.80;99.90;;;;;;5033397;28;20124;-67
2021/12/19 03:38:48;;;;;;;2.33;1.50;;;7.70;99.90;;;;;;5033238;28;20124;-68
2021/12/19 03:43:40;;;;;;;1.75;1.40;;;7.80;99.90;;;;;;5031801;28;20045;-67
2021/12/19 03:46:06;;;;;;;3.00;1.45;;;7.70;99.90;;;;;;5031997;28;20512;-67
2021/12/19 03:48:32;;;;;;;4.07;1.50;;;7.70;99.90;;;;;;5033196;28;20506;-67
2021/12/19 03:50:59;;;;;;;1.48;1.35;;;7.70;99.90;;;;;;5033163;28;20485;-67
2021/12/19 03:53:24;;;;;;;1.70;1.20;;;7.70;99.90;;;;;;5032745;28;20041;-67
2021/12/19 03:55:51;;;;;;;1.90;1.40;;;7.60;99.90;;;;;;5033220;28;20038;-67
2021/12/19 03:58:18;;;;;;;4.63;1.40;;;7.60;99.90;;;;;;5032930;28;20390;-67
2021/12/19 04:00:45;;;;;;;1.98;1.27;;;7.60;99.90;;;;;;5031864;28;20128;-67
2021/12/19 04:03:17;;;;;;;2.33;1.50;;;7.60;99.90;;;;;;5032705;28;20053;-67
2021/12/19 04:05:43;;;;;;;2.28;1.73;;;7.60;99.90;;;;;;5032906;28;20037;-67
2021/12/19 04:08:09;;;;;;;2.58;1.70;;;7.60;99.90;;;;;;5032986;28;20524;-67
2021/12/19 04:10:35;;;;;;;2.60;1.40;;;7.60;99.90;;;;;;5032274;28;20072;-67
2021/12/19 04:13:01;;;;;;;1.48;1.30;;;7.60;99.90;;;;;;5032540;28;20095;-67
2021/12/19 04:15:28;;;;;;;1.52;1.42;;;7.70;99.90;;;;;;5032688;28;20041;-67
2021/12/19 04:17:53;;;;;;;2.70;1.70;;;7.70;99.90;;;;;;5031310;28;20037;-67
2021/12/19 04:20:19;;;;;;;2.10;1.88;;;7.70;99.90;;;;;;5032709;28;20033;-67
2021/12/19 04:22:47;;;;;;;2.70;1.70;;;7.70;99.90;;;;;;5032485;28;20413;-67
2021/12/19 04:25:13;;;;;;;1.77;1.60;;;7.70;99.90;;;;;;5031211;28;20034;-67
2021/12/19 04:27:39;;;;;;;2.83;2.58;;;7.70;99.90;;;;;;5032336;28;20463;-67
2021/12/19 04:30:06;;;;;;;1.77;1.67;;;7.70;99.90;;;;;;5031215;28;20117;-67
2021/12/19 04:32:37;;;;;;;3.22;1.60;;;7.60;99.90;;;;;;5031023;28;20711;-67
2021/12/19 04:35:04;;;;;;;2.22;1.70;;;7.60;99.90;;;;;;5031447;28;20103;-67
2021/12/19 04:40:20;;;;;;;5.78;1.35;;;7.60;99.90;;;;;;5032343;28;20041;-67
2021/12/19 04:43:47;;;;;;;1.55;1.35;;;7.60;99.90;;;;;;5030687;28;20053;-67
2021/12/19 04:59:46;;;;;;;3.58;1.55;;;7.50;99.90;;;;;;5031949;28;20072;-67
2021/12/19 05:14:04;;;;;;;3.55;1.80;;;7.60;99.90;;;;;;5032030;28;20564;-67
2021/12/19 05:15:07;;;;;;;2.03;1.80;;;7.50;99.90;;;;;;5031965;28;20072;-67
2021/12/19 05:17:34;;;;;;;2.58;1.70;;;7.50;99.90;;;;;;5031811;28;20049;-67
2021/12/19 05:20:19;;;;;;;2.03;1.83;;;7.50;99.90;;;;;;5031685;28;20436;-67
2021/12/19 05:22:50;;;;;;;3.08;1.73;;;7.50;99.90;;;;;;5033082;28;20129;-66
2021/12/19 05:25:20;;;;;;;3.38;1.50;;;7.50;99.90;;;;;;5036094;28;20046;-66
2021/12/19 05:27:49;;;;;;;2.35;1.73;;;7.50;99.90;;;;;;5035783;28;20084;-67
2021/12/19 05:30:15;;;;;;;1.98;1.77;;;7.50;99.90;;;;;;5035850;28;20040;-67
2021/12/19 05:32:43;;;;;;;3.08;1.88;;;7.40;99.90;;;;;;5035489;28;20037;-67
2021/12/19 05:35:10;;;;;;;3.80;1.95;;;7.50;99.90;;;;;;5034550;28;20497;-67
2021/12/19 05:45:50;;;;;;;3.83;1.90;;;7.50;99.90;;;;;;5035754;28;20042;-67
2021/12/19 05:48:16;;;;;;;4.70;2.15;;;7.50;99.90;;;;;;5034307;28;20034;-67
2021/12/19 05:50:42;;;;;;;3.33;2.20;;;7.60;99.90;;;;;;5034528;28;20049;-67
2021/12/19 05:53:09;;;;;;;4.18;2.10;;;7.60;99.90;;;;;;5033871;28;20037;-67
2021/12/19 05:55:35;;;;;;;3.55;2.45;;;7.60;99.90;;;;;;5035604;28;20041;-67
2021/12/19 05:58:00;;;;;;;5.50;2.67;;;7.60;99.90;;;;;;5033952;28;20091;-67
2021/12/19 06:00:26;;;;;;;3.63;2.67;;;7.50;99.90;;;;;;5034269;28;20052;-67
2021/12/19 06:02:52;;;;;;;2.58;2.30;;;7.50;99.90;;;;;;5033846;28;20088;-67
2021/12/19 06:05:17;;;;;;;2.63;2.10;;;7.50;99.90;;;;;;5033991;28;20406;-67
2021/12/19 06:07:43;;;;;;;4.45;2.10;;;7.50;99.90;;;;;;5034964;28;20037;-67
2021/12/19 06:10:10;;;;;;;5.85;2.17;;;7.50;99.90;;;;;;5033510;28;20411;-66
2021/12/19 06:12:37;;;;;;;13.07;2.72;;;7.60;99.90;;;;;;5034696;28;20547;-67
2021/12/19 06:15:04;;;;;;;3.65;2.03;;;7.60;99.90;;;;;;5035087;28;20045;-67
2021/12/19 06:17:30;;;;;;;6.97;2.38;;;7.50;99.90;;;;;;5034948;28;20049;-67
2021/12/19 06:19:56;;;;;;;3.22;2.22;;;7.50;99.90;;;;;;5033792;28;20508;-67
2021/12/19 06:22:21;;;;;;;6.78;2.85;;;7.60;99.90;;;;;;5034669;28;20049;-67
2021/12/19 06:24:47;;;;;;;6.00;2.28;;;7.50;99.90;;;;;;5035013;28;20030;-67
2021/12/19 06:27:12;;;;;;;4.72;2.60;;;7.50;99.90;;;;;;5034944;28;20083;-67
2021/12/19 06:29:38;;;;;;;5.22;2.40;;;7.50;99.90;;;;;;5035190;28;20069;-67
2021/12/19 06:32:04;;;;;;;10.10;3.33;;;7.50;99.90;;;;;;5034857;28;20099;-66
2021/12/19 06:34:29;;;;;;;9.68;3.60;;;7.50;99.90;;;;;;5034807;28;20124;-66
2021/12/19 06:36:55;;;;;;;9.80;3.80;;;7.50;99.90;;;;;;5035367;28;20116;-66
2021/12/19 06:39:22;;;;;;;9.90;3.97;;;7.50;99.90;;;;;;5034925;28;20038;-66
2021/12/19 06:41:49;;;;;;;8.48;4.38;;;7.50;99.90;;;;;;5034762;28;20041;-66
2021/12/19 06:44:14;;;;;;;15.57;4.63;;;7.50;99.90;;;;;;5035039;28;20041;-66
2021/12/19 06:46:41;;;;;;;13.95;4.88;;;7.50;99.90;;;;;;5034458;28;20045;-66
2021/12/19 06:49:06;;;;;;;11.98;4.55;;;7.50;99.90;;;;;;5034399;28;20038;-66
2021/12/19 06:51:33;;;;;;;8.48;4.47;;;7.60;99.90;;;;;;5033058;28;20512;-66
2021/12/19 06:53:59;;;;;;;12.90;4.43;;;7.60;99.90;;;;;;5034637;28;20045;-66
2021/12/19 06:56:25;;;;;;;12.65;4.93;;;7.60;99.90;;;;;;5034963;28;20100;-66
2021/12/19 06:58:50;;;;;;;8.95;4.68;;;7.60;99.90;;;;;;5034574;28;20100;-66
2021/12/19 07:01:16;;;;;;;15.85;5.47;;;7.60;99.90;;;;;;5034339;28;20093;-66
2021/12/19 07:03:42;;;;;;;13.20;5.57;;;7.60;99.90;;;;;;5033189;28;20060;-66
2021/12/19 07:06:08;;;;;;;12.15;5.90;;;7.60;99.90;;;;;;5033144;28;20048;-66
2021/12/19 07:08:33;;;;;;;15.10;5.63;;;7.50;99.90;;;;;;5033226;28;20521;-66
2021/12/19 07:10:59;;;;;;;14.35;6.60;;;7.60;99.90;;;;;;5033833;28;20041;-66
2021/12/19 07:13:24;;;;;;;19.40;6.00;;;7.60;99.90;;;;;;5032376;28;20049;-66
2021/12/19 07:15:52;;;;;;;17.35;7.38;;;7.60;99.90;;;;;;5032775;28;20555;-66
2021/12/19 07:18:18;;;;;;;18.60;7.32;;;7.60;99.90;;;;;;5033986;28;20045;-66
2021/12/19 07:20:44;;;;;;;16.00;6.65;;;7.60;99.90;;;;;;5033877;28;20049;-66
2021/12/19 07:23:18;;;;;;;20.67;7.07;;;7.60;99.90;;;;;;5033485;28;20152;-66
2021/12/19 07:25:44;;;;;;;17.40;7.30;;;7.60;99.90;;;;;;5032392;28;20504;-66
2021/12/19 07:28:10;;;;;;;19.65;6.70;;;7.60;99.90;;;;;;5033367;28;20041;-67
2021/12/19 07:30:37;;;;;;;14.35;5.88;;;7.50;99.90;;;;;;5033655;28;20748;-66
2021/12/19 07:33:05;;;;;;;12.90;5.50;;;7.50;99.90;;;;;;5033380;28;20125;-66
2021/12/19 07:35:36;;;;;;;14.00;5.78;;;7.50;99.90;;;;;;5033559;28;20400;-66
2021/12/19 07:38:03;;;;;;;14.27;5.95;;;7.50;99.90;;;;;;5033487;28;20041;-66
2021/12/19 07:40:36;;;;;;;16.95;5.70;;;7.60;99.90;;;;;;5033345;28;20087;-66
2021/12/19 07:43:10;;;;;;;12.77;5.20;;;7.50;99.90;;;;;;5033334;28;20038;-67
2021/12/19 07:45:36;;;;;;;17.67;5.65;;;7.60;99.90;;;;;;5032800;28;20038;-66
2021/12/19 07:48:03;;;;;;;13.88;6.30;;;7.50;99.90;;;;;;5033285;28;20095;-66
2021/12/19 07:50:29;;;;;;;16.40;5.72;;;7.60;99.90;;;;;;5033069;28;20587;-66
2021/12/19 07:52:56;;;;;;;12.30;5.35;;;7.60;99.90;;;;;;5032881;28;20034;-66
2021/12/19 07:55:23;;;;;;;19.10;5.78;;;7.60;99.90;;;;;;5033087;28;20034;-66
2021/12/19 07:57:48;;;;;;;17.38;6.47;;;7.60;99.90;;;;;;5033098;28;20041;-69
2021/12/19 08:00:15;;;;;;;25.38;6.07;;;7.60;99.90;;;;;;5030931;28;20405;-66
2021/12/19 08:02:42;;;;;;;14.68;5.40;;;7.70;99.90;;;;;;5029365;28;20495;-66
2021/12/19 08:05:12;;;;;;;17.80;6.05;;;7.60;99.90;;;;;;5029632;28;20041;-67
2021/12/19 08:07:39;;;;;;;13.30;6.07;;;7.60;99.90;;;;;;5028575;28;20041;-66
2021/12/19 08:12:33;;;;;;;9.18;5.00;;;7.70;99.90;;;;;;5028247;28;20084;-66
2021/12/19 08:14:58;;;;;;;16.77;5.93;;;7.70;99.90;;;;;;5031639;28;20080;-66
2021/12/19 08:17:24;;;;;;;15.63;5.90;;;7.60;99.90;;;;;;5030809;28;20527;-66
2021/12/19 08:19:50;;;;;;;17.85;5.63;;;7.70;99.90;;;;;;5032014;28;20500;-66
2021/12/19 08:22:16;;;;;;;14.35;5.70;;;7.60;99.90;;;;;;5031421;28;20126;-66
2021/12/19 08:24:42;;;;;;;15.55;4.65;;;7.60;99.90;;;;;;5032200;28;20045;-66
2021/12/19 08:27:08;;;;;;;12.15;4.82;;;7.70;99.90;;;;;;5032516;28;20124;-66
2021/12/19 08:29:34;;;;;;;14.05;5.10;;;7.70;99.90;;;;;;5031187;28;20046;-66
2021/12/19 08:32:00;;;;;;;17.08;5.20;;;7.70;99.90;;;;;;5032307;28;20069;-67
2021/12/19 08:34:25;;;;;;;26.45;6.18;;;7.70;99.90;;;;;;5014726;28;20072;-66
2021/12/19 08:36:51;;;;;;;15.32;5.20;;;7.70;99.90;;;;;;5032725;28;20449;-68
2021/12/19 08:39:17;;;;;;;20.10;5.97;;;7.70;99.90;;;;;;5031287;28;20493;-67
2021/12/19 08:41:42;;;;;;;24.40;6.40;;;7.80;99.90;;;;;;5030789;28;20044;-66
2021/12/19 08:44:08;;;;;;;20.33;6.13;;;7.80;99.90;;;;;;5014912;28;20037;-66
2021/12/19 08:46:35;;;;;;;11.35;5.28;;;7.70;99.90;;;;;;5032236;28;20119;-66
2021/12/19 08:49:05;;;;;;;14.27;4.93;;;7.80;99.90;;;;;;5032083;28;20049;-66
2021/12/19 08:51:32;;;;;;;13.05;4.90;;;7.70;99.90;;;;;;5030811;28;20046;-68
2021/12/19 08:54:02;;;;;;;16.52;5.30;;;7.80;99.90;;;;;;5030987;28;20033;-66
2021/12/19 08:56:28;;;;;;;14.57;5.05;;;7.80;99.90;;;;;;5032156;28;20379;-66
2021/12/19 08:58:55;;;;;;;14.18;5.18;;;7.80;99.90;;;;;;5030661;28;20049;-66
2021/12/19 09:01:21;;;;;;;15.35;4.97;;;7.70;99.90;;;;;;5031980;28;20045;-66
2021/12/19 09:03:46;;;;;;;13.80;5.18;;;7.80;99.90;;;;;;5030621;28;20094;-66
2021/12/19 09:06:12;;;;;;;9.23;4.78;;;7.70;99.90;;;;;;5032153;28;20037;-66
2021/12/19 09:08:37;;;;;;;11.30;4.15;;;7.80;99.90;;;;;;5032083;28;20543;-66
2021/12/19 09:11:03;;;;;;;16.55;5.45;;;7.80;99.90;;;;;;5030416;28;20514;-66
2021/12/19 09:13:29;;;;;;;15.30;4.75;;;7.80;99.90;;;;;;5031597;28;20438;-66
2021/12/19 09:15:55;;;;;;;13.57;5.00;;;7.80;99.90;;;;;;5031813;28;20079;-66
2021/12/19 09:18:21;;;;;;;10.40;4.22;;;7.70;99.90;;;;;;5030461;28;20045;-66
2021/12/19 09:20:49;;;;;;;14.43;4.28;;;7.80;99.90;;;;;;5031867;28;20073;-66
2021/12/19 09:23:16;;;;;;;10.27;4.03;;;7.80;99.90;;;;;;5031540;28;20112;-66
2021/12/19 09:25:41;;;;;;;11.45;4.47;;;7.80;99.90;;;;;;5031712;28;20550;-67
2021/12/19 09:28:07;;;;;;;11.25;4.00;;;7.80;99.90;;;;;;5030288;28;20125;-66
2021/12/19 09:30:33;;;;;;;12.52;4.47;;;7.80;99.90;;;;;;5030426;28;20045;-67
2021/12/19 09:32:59;;;;;;;12.52;4.30;;;7.90;99.90;;;;;;5031608;28;20068;-69
2021/12/19 09:35:25;;;;;;;18.67;4.47;;;7.90;99.90;;;;;;5030740;28;20649;-68
2021/12/19 09:37:50;;;;;;;14.32;4.10;;;7.80;99.90;;;;;;5031663;28;20036;-67
2021/12/19 09:40:22;;;;;;;11.32;3.85;;;7.90;99.90;;;;;;5030492;28;20135;-69
2021/12/19 09:42:51;;;;;;;11.43;4.10;;;7.90;99.90;;;;;;5030180;28;20521;-67
2021/12/19 09:45:18;;;;;;;7.80;3.92;;;7.90;99.90;;;;;;5031726;28;20049;-68
2021/12/19 09:47:47;;;;;;;12.60;3.88;;;7.90;99.90;;;;;;5030199;28;20037;-68
2021/12/19 09:50:12;;;;;;;13.77;3.85;;;7.90;99.90;;;;;;5030558;28;20048;-69
2021/12/19 09:52:38;;;;;;;6.72;3.20;;;7.90;99.90;;;;;;5031351;28;20045;-68
2021/12/19 09:55:05;;;;;;;10.15;3.75;;;7.90;99.90;;;;;;5031546;28;20041;-68
2021/12/19 09:57:31;;;;;;;12.27;4.25;;;7.90;99.90;;;;;;5029917;28;20138;-67
2021/12/19 09:59:56;;;;;;;8.95;3.35;;;7.90;99.90;;;;;;5028136;28;20505;-66
2021/12/19 10:02:22;;;;;;;9.20;3.75;;;7.90;99.90;;;;;;5030018;28;20132;-67
2021/12/19 10:04:49;;;;;;;9.68;3.97;;;7.90;99.90;;;;;;5031399;28;20048;-67
2021/12/19 10:07:21;;;;;;;9.77;4.38;;;8.00;99.90;;;;;;5014214;28;20037;-67
2021/12/19 10:10:00;;;;;;;15.00;3.33;;;8.00;99.90;;;;;;5032626;28;20038;-67
2021/12/19 10:12:51;;;;;;;17.90;4.03;;;8.00;99.90;;;;;;5033591;28;20041;-68
2021/12/19 10:15:41;;;;;;;9.25;3.90;;;8.00;99.90;;;;;;5033757;28;20046;-68
2021/12/19 10:18:15;;;;;;;25.10;4.40;;;8.10;99.90;;;;;;5034799;28;20049;-68
2021/12/19 10:21:01;;;;;;;9.52;3.55;;;8.20;99.90;;;;;;5034984;28;20064;-68
2021/12/19 10:23:35;;;;;;;10.50;3.30;;;8.10;99.90;;;;;;5013752;28;20606;-68
2021/12/19 10:26:09;;;;;;;8.45;3.35;;;8.10;99.90;;;;;;5023966;28;20457;-67
2021/12/19 10:28:55;;;;;;;8.65;3.28;;;8.10;99.90;;;;;;5026152;28;20493;-68
2021/12/19 10:31:25;;;;;;;13.48;3.40;;;8.10;99.90;;;;;;5032901;28;20120;-68
2021/12/19 10:33:51;;;;;;;11.25;3.20;;;8.10;99.90;;;;;;5032804;28;20056;-68
2021/12/19 10:36:18;;;;;;;6.18;3.63;;;8.10;99.90;;;;;;5033416;28;20490;-68
2021/12/19 10:38:49;;;;;;;9.30;2.97;;;8.10;99.90;;;;;;5030080;28;20040;-68
2021/12/19 10:41:15;;;;;;;15.20;3.80;;;8.10;99.90;;;;;;5022810;28;20033;-68
2021/12/19 10:44:10;;;;;;;13.07;3.35;;;8.10;99.90;;;;;;5030852;28;20037;-68
2021/12/19 10:46:40;;;;;;;12.50;3.20;;;8.10;99.90;;;;;;5032846;28;20102;-68
2021/12/19 10:49:32;;;;;;;7.32;3.70;;;8.10;99.90;;;;;;5030485;28;20399;-68
2021/12/19 10:52:01;;;;;;;8.23;3.40;;;8.10;99.90;;;;;;5031730;28;20044;-68
2021/12/19 10:54:28;;;;;;;7.68;2.90;;;8.10;99.90;;;;;;5030694;28;20367;-67
2021/12/19 10:57:06;;;;;;;10.13;3.10;;;8.10;99.90;;;;;;5029945;28;20045;-68
2021/12/19 10:59:34;;;;;;;9.77;3.00;;;8.20;99.90;;;;;;5032772;28;20038;-68
2021/12/19 11:01:59;;;;;;;5.53;3.15;;;8.20;99.90;;;;;;5032487;28;20041;-68
2021/12/19 11:04:25;;;;;;;8.75;3.28;;;8.20;99.90;;;;;;5033077;28;20497;-69
2021/12/19 11:06:56;;;;;;;13.23;4.78;;;8.10;99.90;;;;;;5034082;28;20048;-69
2021/12/19 11:09:34;;;;;;;12.65;4.03;;;8.20;99.90;;;;;;5033931;28;20116;-70
2021/12/19 11:12:11;;;;;;;7.03;3.92;;;8.20;99.90;;;;;;5032473;28;20045;-69
2021/12/19 11:14:45;;;;;;;9.65;3.42;;;8.20;99.90;;;;;;5032827;28;20041;-67
2021/12/19 11:17:26;;;;;;;9.48;4.20;;;8.30;99.90;;;;;;5032691;28;20052;-67
2021/12/19 11:19:56;;;;;;;13.43;4.97;;;8.30;99.90;;;;;;5031500;28;20513;-67
2021/12/19 11:22:26;;;;;;;16.95;6.63;;;8.40;99.90;;;;;;5033485;28;20041;-68
2021/12/19 11:24:53;;;;;;;13.27;4.32;;;8.40;99.90;;;;;;5032447;28;20037;-67
2021/12/19 11:27:19;;;;;;;13.15;4.43;;;8.40;99.90;;;;;;5032152;28;20049;-69
2021/12/19 11:29:46;;;;;;;16.50;4.80;;;8.50;99.90;;;;;;5032356;28;20050;-69
2021/12/19 11:32:18;;;;;;;14.40;3.30;;;8.60;99.90;;;;;;5032087;28;20099;-69
2021/12/19 11:34:58;;;;;;;10.82;3.60;;;8.60;99.90;;;;;;5033654;28;20047;-70
2021/12/19 11:37:31;;;;;;;11.40;3.97;;;8.60;99.90;;;;;;5032183;28;20045;-70
2021/12/19 11:39:57;;;;;;;13.85;3.78;;;8.50;99.90;;;;;;5032361;28;20052;-69
2021/12/19 11:42:34;;;;;;;12.80;3.42;;;8.60;99.90;;;;;;5031791;28;20045;-71
2021/12/19 11:47:57;;;;;;;17.13;4.10;;;8.50;99.90;;;;;;5033192;28;20049;-71
2021/12/19 11:50:29;;;;;;;14.15;3.35;;;8.50;99.90;;;;;;5031930;28;20084;-72
2021/12/19 11:52:58;;;;;;;6.63;2.88;;;8.60;99.90;;;;;;5031600;28;20029;-72
2021/12/19 11:55:26;;;;;;;17.00;3.70;;;8.60;99.90;;;;;;5031841;28;20129;-71
2021/12/19 11:58:07;;;;;;;12.27;3.08;;;8.50;99.90;;;;;;5033115;28;20121;-71
2021/12/19 12:00:43;;;;;;;16.42;3.60;;;8.50;99.90;;;;;;5031645;28;20041;-71
2021/12/19 12:03:11;;;;;;;11.25;3.17;;;8.50;99.90;;;;;;5031405;28;20493;-71
2021/12/19 12:05:45;;;;;;;10.98;3.55;;;8.50;99.90;;;;;;5015106;28;20088;-71
2021/12/19 12:08:21;;;;;;;9.27;3.70;;;8.40;99.90;;;;;;4999716;28;20053;-71
2021/12/19 12:10:53;;;;;;;13.02;4.50;;;8.40;99.90;;;;;;5030922;28;20452;-70
2021/12/19 12:13:28;;;;;;;;;;;8.40;99.90;;;;;;5030144;28;20045;-71
2021/12/19 12:16:05;;;;;;;10.73;3.17;;;8.40;99.90;;;;;;5034162;28;19917;-71
2021/12/19 12:18:37;;;;;;;12.75;3.17;;;8.40;99.90;;;;;;4996968;28;20497;-71
2021/12/19 12:23:58;;;;;;;11.18;3.13;;;8.30;99.90;;;;;;5020637;28;20041;-71
2021/12/19 12:26:37;;;;;;;16.75;4.72;;;8.30;99.90;;;;;;5020960;28;20099;-70
2021/12/19 12:29:04;;;;;;;14.95;3.95;;;8.40;99.90;;;;;;5003134;28;20044;-71
2021/12/19 12:31:30;;;;;;;13.15;4.53;;;8.40;99.90;;;;;;5031906;28;20497;-71
2021/12/19 12:33:56;;;;;;;13.43;3.88;;;8.40;99.90;;;;;;5030654;28;20182;-71
2021/12/19 12:36:22;;;;;;;23.48;6.95;;;8.40;99.90;;;;;;5032031;28;20041;-71
2021/12/19 12:38:51;;;;;;;15.05;4.15;;;8.40;99.90;;;;;;5030836;28;20045;-71
2021/12/19 12:41:29;;;;;;;27.88;5.50;;;8.40;99.90;;;;;;5030781;28;20041;-71
2021/12/19 12:44:12;;;;;;;17.90;4.10;;;8.40;99.90;;;;;;5029612;28;20033;-70
2021/12/19 12:46:38;;;;;;;19.45;4.80;;;8.40;99.90;;;;;;5037387;28;20043;-70
2021/12/19 12:49:04;;;;;;;10.88;4.10;;;8.40;99.90;;;;;;5030489;28;20068;-72
2021/12/19 12:51:41;;;;;;;18.15;5.60;;;8.40;99.90;;;;;;5030882;28;20450;-71
2021/12/19 12:54:12;;;;;;;14.50;4.40;;;8.40;99.90;;;;;;5030410;28;20052;-71
2021/12/19 12:56:47;;;;;;;18.13;7.25;;;8.40;99.90;;;;;;5030788;28;20049;-71
2021/12/19 12:59:16;;;;;;;13.52;3.42;;;8.40;99.90;;;;;;5030472;28;20510;-72
2021/12/19 13:01:54;;;;;;;16.55;4.13;;;8.30;99.90;;;;;;5013700;28;20056;-73
2021/12/19 13:04:27;;;;;;;17.88;3.03;;;8.40;99.90;;;;;;5030613;28;20099;-72
2021/12/19 13:07:10;;;;;;;17.67;3.42;;;8.40;99.90;;;;;;5014261;28;20034;-77
2021/12/19 13:09:39;;;;;;;20.17;4.03;;;8.40;99.90;;;;;;5030390;28;20045;-76
2021/12/19 13:12:23;;;;;;;14.55;3.33;;;8.40;99.90;;;;;;5006814;28;20033;-76
2021/12/19 13:14:55;;;;;;;14.43;3.50;;;8.30;99.90;;;;;;5007320;28;20044;-78
2021/12/19 13:17:29;;;;;;;15.15;3.60;;;8.80;99.90;;;;;;5030721;28;20045;-76
2021/12/19 13:20:01;;;;;;;13.00;2.97;;;8.60;99.90;;;;;;5030076;28;20196;-76
2021/12/19 13:22:31;;;;;;;16.40;3.03;;;8.60;99.90;;;;;;5029457;28;20048;-76
2021/12/19 13:25:22;;;;;;;20.05;3.90;;;8.50;99.90;;;;;;5030287;28;20162;-76
2021/12/19 13:27:54;;;;;;;21.52;5.93;;;8.50;99.90;;;;;;5029805;28;20041;-76
2021/12/19 13:30:29;;;;;;;18.33;5.37;;;8.40;99.90;;;;;;5029603;28;20528;-76
2021/12/19 13:33:04;;;;;;;17.70;4.95;;;8.40;99.90;;;;;;5028951;28;20164;-76
2021/12/19 13:35:56;;;;;;;16.38;4.78;;;8.40;99.90;;;;;;5029672;28;20037;-72
2021/12/19 13:38:28;;;;;;;20.52;5.72;;;8.40;99.90;;;;;;5043791;28;20048;-71
2021/12/19 13:40:59;;;;;;;17.13;4.80;;;8.40;99.90;;;;;;5029493;28;20517;-72
2021/12/19 13:43:34;;;;;;;12.48;3.92;;;8.40;99.90;;;;;;5030299;28;20614;-72
2021/12/19 13:46:01;;;;;;;24.75;5.90;;;8.40;99.90;;;;;;5033520;28;20124;-71
2021/12/19 13:48:57;;;;;;;16.15;3.65;;;8.40;99.90;;;;;;5032533;28;20037;-72
2021/12/19 13:51:26;;;;;;;19.58;3.88;;;8.30;99.90;;;;;;5033987;28;20041;-72
2021/12/19 13:53:57;;;;;;;16.27;3.03;;;8.30;99.90;;;;;;5040205;28;20073;-72
2021/12/19 13:56:31;;;;;;;13.73;3.17;;;8.30;99.90;;;;;;5053855;28;20052;-72
2021/12/19 13:59:00;;;;;;;10.05;3.25;;;8.30;99.90;;;;;;5053668;28;20497;-72
2021/12/19 14:01:29;;;;;;;14.50;4.90;;;8.30;99.90;;;;;;5053673;28;20493;-72
2021/12/19 14:04:14;;;;;;;13.45;5.30;;;8.30;99.90;;;;;;5053570;28;20489;-71
2021/12/19 14:06:40;;;;;;;16.15;4.15;;;8.30;99.90;;;;;;5055447;28;20409;-73